Latest Weather Observations for Redcliffe

IDQ60801

Issued at 9:32 am EST Wednesday 1 April 2015 (issued every 30 minutes, with the page automatically refreshed every 10 minutes)

About weather observations | Map of weather stations | Latest weather observations for QLD | Other Formats
Station Details ID: 040958 Name: REDCLIFFE Lat: -27.22 Lon: 153.09 Height: 12.6 m
Data from the previous 72 hours. | See also: Recent months at Redcliffe
Date/Time
EST
Temp
°C
App
Temp
°C
Dew
Point
Rel
Hum
%
Delta-T
°C
Wind Press
QNH
hPa
Press
MSL
hPa
Rain
since 9 am
mm
Dir
 
Spd
km/h
Gust
km/h
Spd
kts
Gust
kts
01/09:30am 19.8 19.9 18.3 91 0.9 SSW 15 19 8 10 1023.0 1022.9 3.4
01/09:00am 19.7 17.3 18.2 91 0.9 S 28 33 15 18 1022.7 1022.6 53.0
01/08:30am 19.9 17.9 18.4 91 0.9 SSW 26 35 14 19 1022.5 1022.4 52.4
01/08:00am 20.2 19.7 18.7 91 0.9 SSW 19 28 10 15 1022.1 1022.0 52.4
01/07:30am 20.2 20.1 18.7 91 0.9 S 17 24 9 13 1021.7 1021.6 52.4
01/07:00am 20.3 16.9 18.1 87 1.4 SE 33 39 18 21 1021.2 1021.1 47.4
01/06:30am 20.6 16.2 18.5 88 1.3 SE 39 48 21 26 1020.8 1020.7 47.0
01/06:09am 21.1 18.4 19.2 89 1.2 SE 32 43 17 23 1020.6 1020.5 46.8
01/06:00am 21.1 20.2 19.0 88 1.3 SE 22 28 12 15 1020.5 1020.4 46.8
01/05:30am 20.8 19.7 18.7 88 1.3 ESE 22 28 12 15 1020.3 1020.2 46.6
01/05:00am 20.2 18.1 18.9 92 0.8 E 28 32 15 17 1020.0 1019.9 46.4
01/04:30am 19.7 20.2 18.4 92 0.8 ESE 13 20 7 11 1019.7 1019.6 44.4
01/04:00am 19.9 19.2 18.6 92 0.8 S 20 28 11 15 1019.2 1019.1 27.6
01/03:30am 20.0 19.9 18.7 92 0.8 SSW 17 22 9 12 1019.1 1019.0 27.2
01/03:00am 19.9 19.7 18.6 92 0.8 SSW 17 24 9 13 1019.1 1019.0 26.0
01/02:30am 20.0 21.4 18.7 92 0.8 SSE 9 15 5 8 1019.9 1019.8 24.0
01/02:00am 20.1 21.2 18.8 92 0.8 SSE 11 19 6 10 1020.2 1020.1 17.2
01/01:30am 20.1 19.1 18.8 92 0.8 S 22 28 12 15 1020.2 1020.1 11.6
01/01:00am 20.0 19.8 18.5 91 0.9 SSW 17 24 9 13 1020.4 1020.3 10.4
01/12:30am 19.9 19.7 18.4 91 0.9 SSW 17 24 9 13 1020.9 1020.8 10.0
 
Date/Time
EST
Temp
°C
App
Temp
°C
Dew
Point
Rel
Hum
%
Delta-T
°C
Wind Press
QNH
hPa
Press
MSL
hPa
Rain
since 9 am
mm
Dir
 
Spd
km/h
Gust
km/h
Spd
kts
Gust
kts
31/11:30pm 20.2 20.1 18.7 91 0.9 S 17 22 9 12 1021.2 1021.1 7.2
31/11:00pm 20.4 18.9 18.5 89 1.2 SSE 24 30 13 16 1021.7 1021.6 5.0
31/10:30pm 21.2 21.0 18.4 84 1.7 ESE 17 26 9 14 1021.9 1021.8 2.4
31/10:00pm 21.4 20.1 18.2 82 2.0 S 22 28 12 15 1021.8 1021.7 1.2
31/09:30pm 21.4 18.2 17.2 77 2.6 SSE 30 35 16 19 1021.9 1021.8 1.2
31/09:00pm 20.4 15.2 17.4 83 1.8 SSE 41 50 22 27 1021.9 1021.8 1.2
31/08:30pm 21.8 17.2 18.0 79 2.4 S 39 44 21 24 1021.6 1021.5 0.0
31/08:00pm 22.5 20.7 17.8 75 2.9 SSE 24 32 13 17 1021.8 1021.7 0.0
31/07:30pm 23.5 21.2 17.5 69 3.7 SE 26 32 14 17 1021.4 1021.3 0.0
31/07:00pm 22.7 20.3 18.3 76 2.8 SE 28 32 15 17 1021.2 1021.1 0.0
31/06:30pm 23.4 20.6 17.2 68 3.8 SE 28 33 15 18 1020.8 1020.7 0.0
31/06:00pm 23.2 20.1 16.5 66 4.1 ESE 28 32 15 17 1020.6 1020.5 0.0
31/05:30pm 23.3 20.3 16.8 67 4.0 ESE 28 32 15 17 1020.4 1020.3 0.0
31/05:00pm 23.5 20.7 17.3 68 3.8 E 28 32 15 17 1020.4 1020.3 0.0
31/04:30pm 23.5 20.9 17.7 70 3.6 E 28 32 15 17 1020.2 1020.1 0.0
31/04:00pm 24.1 22.1 16.4 62 4.7 ESE 22 28 12 15 1020.0 1019.9 0.0
31/03:30pm 23.9 22.8 16.4 63 4.6 SE 17 22 9 12 1020.3 1020.2 0.0
31/03:00pm 23.8 22.5 16.8 65 4.3 ESE 19 24 10 13 1020.4 1020.3 0.0
31/02:30pm 23.7 22.8 17.7 69 3.7 ESE 19 24 10 13 1020.4 1020.3 0.0
31/02:00pm 23.8 22.5 17.3 67 4.0 SE 20 26 11 14 1020.7 1020.6 0.0
31/01:30pm 23.5 21.7 17.0 67 4.0 SE 22 26 12 14 1021.0 1020.9 0.0
31/01:00pm 23.6 21.3 16.6 65 4.3 SE 24 30 13 16 1021.3 1021.2 0.0
31/12:30pm 22.8 21.5 17.3 71 3.4 SSE 20 26 11 14 1021.1 1021.0 0.0
31/12:00pm 24.6 24.0 17.6 65 4.4 S 17 20 9 11 1021.7 1021.6 0.0
31/11:30am 24.5 24.0 18.7 70 3.7 SSE 19 24 10 13 1022.2 1022.1 0.0
31/11:00am 24.5 23.1 18.0 67 4.1 SSE 22 30 12 16 1022.3 1022.2 0.0
31/10:30am 24.6 23.7 16.8 62 4.8 ESE 17 20 9 11 1022.6 1022.5 0.0
31/10:00am 24.6 23.6 16.6 61 4.9 ESE 17 20 9 11 1022.8 1022.7 0.0
31/09:30am 24.7 23.9 17.2 63 4.7 ESE 17 22 9 12 1022.9 1022.8 0.0
31/09:00am 24.3 24.7 18.2 68 3.8 E 13 17 7 9 1023.0 1022.9 0.0
31/08:30am 23.3 23.7 18.2 73 3.2 ESE 13 20 7 11 1022.7 1022.6 0.0
31/08:00am 22.6 22.1 17.9 75 2.9 ESE 17 20 9 11 1022.5 1022.4 0.0
31/07:30am 22.4 21.6 18.0 76 2.7 E 19 22 10 12 1022.1 1022.0 0.0
31/07:00am 22.1 22.7 17.7 76 2.7 E 11 15 6 8 1021.8 1021.7 0.0
31/06:30am 21.3 21.0 17.3 78 2.5 ENE 15 20 8 11 1021.7 1021.6 0.0
31/06:00am 21.6 19.7 17.6 78 2.5 S 24 28 13 15 1021.3 1021.2 0.0
31/05:30am 21.2 21.6 17.2 78 2.4 SSW 11 17 6 9 1021.0 1020.9 0.0
31/05:00am 21.4 20.6 17.0 76 2.7 S 17 26 9 14 1021.1 1021.0 0.0
31/04:30am 21.5 20.8 17.3 77 2.6 SSE 17 22 9 12 1020.9 1020.8 0.0
31/04:00am 21.4 21.0 17.2 77 2.6 SW 15 17 8 9 1020.9 1020.8 0.0
31/03:30am 21.6 21.6 17.2 76 2.7 SE 13 20 7 11 1020.9 1020.8 0.0
31/03:00am 21.6 21.2 17.2 76 2.7 E 15 19 8 10 1021.1 1021.0 0.0
31/02:30am 21.9 21.1 17.1 74 2.9 E 17 19 9 10 1021.2 1021.1 0.0
31/02:00am 23.8 22.7 15.3 59 5.1 E 15 20 8 11 1021.7 1021.6 0.0
31/01:30am 23.7 22.4 15.7 61 4.8 E 17 20 9 11 1021.9 1021.8 0.0
31/01:00am 23.8 22.0 15.6 60 4.9 E 19 22 10 12 1022.0 1021.9 0.0
31/12:30am 23.6 22.2 16.6 65 4.3 E 19 24 10 13 1022.4 1022.3 0.0
31/12:00am 22.9 22.9 17.1 70 3.6 E 13 20 7 11 1022.4 1022.3 0.0
 
Date/Time
EST
Temp
°C
App
Temp
°C
Dew
Point
Rel
Hum
%
Delta-T
°C
Wind Press
QNH
hPa
Press
MSL
hPa
Rain
since 9 am
mm
Dir
 
Spd
km/h
Gust
km/h
Spd
kts
Gust
kts
30/11:30pm 22.9 21.9 16.7 68 3.8 NNE 17 20 9 11 1022.5 1022.4 0.0
30/11:00pm 23.2 19.9 17.0 68 3.8 ENE 30 35 16 19 1022.6 1022.5 0.0
30/10:30pm 23.7 22.5 16.2 63 4.6 ESE 17 19 9 10 1022.8 1022.7 0.0
30/10:00pm 23.8 22.9 15.8 61 4.8 ESE 15 19 8 10 1023.2 1023.1 0.0
30/09:30pm 23.9 23.0 15.9 61 4.8 E 15 19 8 10 1023.2 1023.1 0.0
30/09:00pm 24.0 22.7 15.8 60 4.9 E 17 20 9 11 1023.3 1023.2 0.0
30/08:30pm 23.8 22.2 15.0 57 5.3 E 17 20 9 11 1023.2 1023.1 0.0
30/08:00pm 23.8 22.2 15.0 57 5.2 E 17 20 9 11 1023.0 1022.9 0.0
30/07:30pm 24.0 22.9 15.2 58 5.3 E 15 20 8 11 1022.8 1022.7 0.0
30/07:00pm 24.0 22.4 15.0 57 5.4 E 17 20 9 11 1022.6 1022.5 0.0
30/06:30pm 23.9 22.6 15.7 60 5.0 E 17 22 9 12 1022.0 1021.9 0.0
30/06:00pm 24.2 23.0 16.2 61 4.9 E 17 20 9 11 1021.7 1021.6 0.0
30/05:30pm 24.6 23.1 15.2 55 5.6 E 17 19 9 10 1021.5 1021.4 0.0
30/05:00pm 24.8 23.2 15.1 54 5.8 E 17 22 9 12 1021.2 1021.1 0.0
30/04:30pm 24.9 24.0 15.8 57 5.5 E 15 19 8 10 1021.0 1020.9 0.0
30/04:00pm 25.1 23.3 16.0 57 5.5 E 20 24 11 13 1020.8 1020.7 0.0
30/03:30pm 25.1 22.9 14.8 52 6.2 E 20 24 11 13 1020.6 1020.5 0.0
30/03:00pm 25.2 23.4 15.5 55 5.9 E 19 22 10 12 1020.7 1020.6 0.0
30/02:30pm 26.2 25.0 15.0 50 6.8 ENE 15 19 8 10 1020.8 1020.7 0.0
30/02:00pm 25.7 24.2 15.4 53 6.2 ENE 17 22 9 12 1021.0 1020.9 0.0
30/01:30pm 26.1 23.9 14.9 50 6.7 E 20 26 11 14 1021.1 1021.0 0.0
30/01:00pm 26.2 25.3 15.9 53 6.3 E 15 22 8 12 1021.7 1021.6 0.0
30/12:30pm 26.5 25.4 16.4 53 6.2 E 17 20 9 11 1022.0 1021.9 0.0
30/12:00pm 25.8 24.0 16.1 55 5.9 ENE 20 26 11 14 1022.2 1022.1 0.0
30/11:30am 25.8 24.6 16.1 55 5.9 E 17 19 9 10 1022.7 1022.6 0.0
30/11:00am 26.3 25.8 16.8 56 5.9 E 15 19 8 10 1023.5 1023.4 0.0
30/10:30am 25.7 25.4 16.5 56 5.7 E 13 15 7 8 1024.2 1024.1 0.0
30/10:00am 25.6 24.9 16.4 56 5.6 E 15 20 8 11 1023.8 1023.7 0.0
30/09:30am 24.9 23.7 16.1 58 5.4 ENE 17 20 9 11 1023.8 1023.7 0.0
30/09:00am 24.8 23.8 16.5 60 5.1 E 17 22 9 12 1024.0 1023.9 0.0
30/08:30am 24.8 23.4 16.5 60 5.1 ENE 19 26 10 14 1023.4 1023.3 0.0
30/08:00am 25.2 23.6 16.1 57 5.5 ENE 19 22 10 12 1023.7 1023.6 0.0
30/07:30am 25.1 23.5 16.5 59 5.3 ENE 20 26 11 14 1023.0 1022.9 0.0
30/07:00am 23.9 22.6 16.7 64 4.4 ENE 19 22 10 12 1022.8 1022.7 0.0
30/06:30am 23.7 22.3 16.5 64 4.4 ENE 19 24 10 13 1022.5 1022.4 0.0
30/06:00am 23.7 22.4 16.7 65 4.3 NE 19 24 10 13 1022.3 1022.2 0.0
30/05:30am 23.6 22.1 16.4 64 4.4 NE 19 22 10 12 1021.9 1021.8 0.0
30/05:00am 23.6 22.0 16.6 65 4.3 ENE 20 26 11 14 1021.7 1021.6 0.0
30/04:30am 23.6 22.0 16.6 65 4.3 ENE 20 26 11 14 1021.3 1021.2 0.0
30/04:00am 23.7 21.7 16.5 64 4.4 ENE 22 28 12 15 1021.0 1020.9 0.0
30/03:30am 23.7 22.2 16.7 65 4.3 ENE 20 28 11 15 1021.3 1021.2 0.0
30/03:00am 23.7 22.4 16.7 65 4.3 ENE 19 26 10 14 1021.4 1021.3 0.0
30/02:30am 23.8 22.4 16.6 64 4.4 ENE 19 28 10 15 1021.5 1021.4 0.0
30/02:00am 23.8 22.2 16.6 64 4.4 ENE 20 26 11 14 1021.6 1021.5 0.0
30/01:30am 23.7 22.4 16.7 65 4.3 ENE 19 22 10 12 1021.8 1021.7 0.0
30/01:00am 23.6 22.8 17.1 67 4.0 ENE 17 20 9 11 1022.0 1021.9 0.0
30/12:30am 23.7 22.4 16.7 65 4.3 NE 19 22 10 12 1022.4 1022.3 0.0
30/12:00am 23.7 22.7 16.5 64 4.4 ENE 17 24 9 13 1022.5 1022.4 0.0
 
Date/Time
EST
Temp
°C
App
Temp
°C
Dew
Point
Rel
Hum
%
Delta-T
°C
Wind Press
QNH
hPa
Press
MSL
hPa
Rain
since 9 am
mm
Dir
 
Spd
km/h
Gust
km/h
Spd
kts
Gust
kts
29/11:30pm 23.7 23.0 16.5 64 4.4 ENE 15 19 8 10 1022.8 1022.7 0.0
29/11:00pm 23.9 22.8 16.4 63 4.6 ENE 17 19 9 10 1022.9 1022.8 0.0
29/10:30pm 24.0 22.6 16.5 63 4.6 ENE 19 24 10 13 1022.5 1022.4 0.0
29/10:00pm 24.0 21.9 16.3 62 4.7 ENE 22 26 12 14 1022.7 1022.6 0.0
29/09:30pm 23.9 22.2 16.2 62 4.7 ENE 20 24 11 13 1023.0 1022.9 0.0
29/09:00pm 24.1 22.6 16.4 62 4.7 ENE 19 22 10 12 1023.3 1023.2 0.0
29/08:30pm 23.8 22.7 16.3 63 4.6 ENE 17 20 9 11 1023.4 1023.3 0.0
29/08:00pm 24.0 23.3 16.3 62 4.7 ENE 15 19 8 10 1023.0 1022.9 0.0
29/07:30pm 24.1 23.0 16.4 62 4.7 ENE 17 26 9 14 1022.4 1022.3 0.0
29/07:00pm 24.2 22.6 16.5 62 4.7 ENE 20 26 11 14 1022.0 1021.9 0.0
29/06:30pm 24.4 22.9 16.4 61 4.9 ENE 19 22 10 12 1021.7 1021.6 0.0
29/06:00pm 24.5 22.8 15.7 58 5.3 ENE 19 22 10 12 1021.4 1021.3 0.0
29/05:30pm 24.9 23.0 15.2 54 5.8 ENE 19 24 10 13 1021.3 1021.2 0.0
29/05:00pm 25.3 23.7 15.0 53 6.2 ENE 17 20 9 11 1021.2 1021.1 0.0
29/04:30pm 25.7 24.0 14.8 51 6.5 ENE 17 22 9 12 1021.2 1021.1 0.0
29/04:00pm 25.8 23.9 15.2 52 6.4 ENE 19 20 10 11 1021.0 1020.9 0.0
29/03:30pm 26.0 24.9 16.3 55 6.0 E 17 22 9 12 1020.9 1020.8 0.0
29/03:00pm 26.1 24.7 15.5 52 6.4 E 17 20 9 11 1021.1 1021.0 0.0
29/02:30pm 26.5 25.3 16.1 52 6.4 E 17 19 9 10 1021.1 1021.0 0.0
29/02:00pm 26.3 25.1 16.0 53 6.3 E 17 22 9 12 1021.3 1021.2 0.0
29/01:30pm 26.4 25.7 16.3 53 6.2 E 15 19 8 10 1021.4 1021.3 0.0
29/01:00pm 26.4 25.6 17.2 57 5.7 E 17 20 9 11 1021.7 1021.6 0.0
29/12:30pm 26.5 25.0 16.4 53 6.2 E 19 22 10 12 1022.2 1022.1 0.0
29/12:00pm 26.5 25.9 17.6 58 5.6 E 17 26 9 14 1022.5 1022.4 0.0
29/11:30am 27.0 26.1 17.8 57 5.8 E 19 24 10 13 1022.8 1022.7 0.0
29/11:00am 26.6 26.3 18.2 60 5.3 E 17 20 9 11 1023.3 1023.2 0.0
29/10:30am 26.4 25.3 17.2 57 5.7 E 19 24 10 13 1023.5 1023.4 0.0
29/10:00am 26.4 25.1 17.2 57 5.7 E 20 26 11 14 1023.5 1023.4 0.0

Other Formats:

Comma delimited format used in spreadsheet applications
http://www.bom.gov.au/fwo/IDQ60801/IDQ60801.95591.axf

JavaScript Object Notation format (JSON) in row-major order
http://www.bom.gov.au/fwo/IDQ60801/IDQ60801.95591.json